Medical Lake, Washington
Current Conditions -  °F | °C
As of 1:33 PM on Wednesday 26 Nov 2014 (Local Time) from KSKA Reporting Station
Unknown Precip Unknown Precip  
Wind Chill: 36°   Ceiling: 500
Heat Index: 41°   Visibility: 10mi
Dew Point: 41°   Wind: 7mph
Humidity: 100%   Direction: 210°SSW
Pressure: 30.1"   Gusts: NA
Location:  47.57°N, 117.68°W
Report Text: KSKA 262133Z AUTO 21006KT 10SM UP OVC005 05/05 A3010 RMK AO2 UPE2056B2128
Loading
Personal Weather Stations






























Interactive Weather Map New forecast layout! Learn more

10-Day Weather Forecast

Advertisements
Track Severe Weather on mobile